sensor_id;sensor_type;location;lat;lon;timestamp;pressure;altitude;pressure_sealevel;temperature
82780;BMP280;72511;45.120;20.720;2023-12-29T00:08:46;101064.59;;;4.44
82780;BMP280;72511;45.120;20.720;2023-12-29T00:18:48;101063.00;;;4.40
82780;BMP280;72511;45.120;20.720;2023-12-29T00:28:50;101072.53;;;4.37
82780;BMP280;72511;45.120;20.720;2023-12-29T00:38:52;101053.06;;;4.21
82780;BMP280;72511;45.120;20.720;2023-12-29T00:48:53;101066.91;;;4.23
82780;BMP280;72511;45.120;20.720;2023-12-29T00:58:55;101076.63;;;4.12
82780;BMP280;72511;45.120;20.720;2023-12-29T01:08:56;101078.53;;;4.11
82780;BMP280;72511;45.120;20.720;2023-12-29T01:18:57;101088.44;;;4.07
82780;BMP280;72511;45.120;20.720;2023-12-29T01:28:59;101066.16;;;3.84
82780;BMP280;72511;45.120;20.720;2023-12-29T01:39:00;101055.78;;;3.83
82780;BMP280;72511;45.120;20.720;2023-12-29T01:49:04;101042.41;;;3.83
82780;BMP280;72511;45.120;20.720;2023-12-29T01:59:05;101025.06;;;3.77
82780;BMP280;72511;45.120;20.720;2023-12-29T02:09:07;101032.41;;;3.80
82780;BMP280;72511;45.120;20.720;2023-12-29T02:29:37;101005.34;;;3.66
82780;BMP280;72511;45.120;20.720;2023-12-29T02:39:39;101007.38;;;3.53
82780;BMP280;72511;45.120;20.720;2023-12-29T02:49:41;101005.41;;;3.50
82780;BMP280;72511;45.120;20.720;2023-12-29T02:59:43;100996.03;;;3.41
82780;BMP280;72511;45.120;20.720;2023-12-29T03:09:44;100995.94;;;3.37
82780;BMP280;72511;45.120;20.720;2023-12-29T03:19:47;100990.09;;;3.32
82780;BMP280;72511;45.120;20.720;2023-12-29T03:29:49;100989.97;;;3.09
82780;BMP280;72511;45.120;20.720;2023-12-29T03:39:50;100984.56;;;3.06
82780;BMP280;72511;45.120;20.720;2023-12-29T03:49:51;100981.09;;;3.05
82780;BMP280;72511;45.120;20.720;2023-12-29T03:59:53;100978.94;;;3.11
82780;BMP280;72511;45.120;20.720;2023-12-29T04:09:54;100952.59;;;2.94
82780;BMP280;72511;45.120;20.720;2023-12-29T04:19:56;100972.63;;;3.19
82780;BMP280;72511;45.120;20.720;2023-12-29T04:29:57;100976.25;;;3.11
82780;BMP280;72511;45.120;20.720;2023-12-29T04:39:59;100985.31;;;3.06
82780;BMP280;72511;45.120;20.720;2023-12-29T04:50:00;100992.25;;;3.07
82780;BMP280;72511;45.120;20.720;2023-12-29T05:00:02;100999.56;;;3.10
82780;BMP280;72511;45.120;20.720;2023-12-29T05:10:04;101005.25;;;3.09
82780;BMP280;72511;45.120;20.720;2023-12-29T05:20:09;101008.44;;;2.99
82780;BMP280;72511;45.120;20.720;2023-12-29T05:30:11;101020.41;;;2.86
82780;BMP280;72511;45.120;20.720;2023-12-29T05:40:12;101018.81;;;2.54
82780;BMP280;72511;45.120;20.720;2023-12-29T05:50:14;101011.78;;;2.34
82780;BMP280;72511;45.120;20.720;2023-12-29T06:00:16;101002.00;;;2.22
82780;BMP280;72511;45.120;20.720;2023-12-29T06:10:17;100997.44;;;2.23
82780;BMP280;72511;45.120;20.720;2023-12-29T06:20:18;100982.94;;;2.24
82780;BMP280;72511;45.120;20.720;2023-12-29T06:30:21;101009.50;;;2.48
82780;BMP280;72511;45.120;20.720;2023-12-29T06:40:22;100985.41;;;2.60
82780;BMP280;72511;45.120;20.720;2023-12-29T06:50:24;101014.72;;;3.06
82780;BMP280;72511;45.120;20.720;2023-12-29T07:00:25;101014.75;;;3.41
82780;BMP280;72511;45.120;20.720;2023-12-29T07:10:26;101024.72;;;3.78
82780;BMP280;72511;45.120;20.720;2023-12-29T07:20:28;101022.16;;;6.67
82780;BMP280;72511;45.120;20.720;2023-12-29T07:30:29;101012.31;;;7.78
82780;BMP280;72511;45.120;20.720;2023-12-29T07:40:31;101020.06;;;7.90
82780;BMP280;72511;45.120;20.720;2023-12-29T07:50:32;101015.38;;;7.76
82780;BMP280;72511;45.120;20.720;2023-12-29T08:00:34;101019.38;;;9.49
82780;BMP280;72511;45.120;20.720;2023-12-29T08:10:35;101020.31;;;10.78
82780;BMP280;72511;45.120;20.720;2023-12-29T08:20:36;101030.16;;;10.95
82780;BMP280;72511;45.120;20.720;2023-12-29T08:30:38;101036.41;;;10.88
82780;BMP280;72511;45.120;20.720;2023-12-29T08:40:40;101028.91;;;10.69
82780;BMP280;72511;45.120;20.720;2023-12-29T08:50:43;101059.81;;;10.28
82780;BMP280;72511;45.120;20.720;2023-12-29T09:00:45;101056.84;;;10.59
82780;BMP280;72511;45.120;20.720;2023-12-29T09:10:46;101044.44;;;10.95
82780;BMP280;72511;45.120;20.720;2023-12-29T09:20:48;101035.16;;;11.30
82780;BMP280;72511;45.120;20.720;2023-12-29T09:30:49;101034.78;;;11.58
82780;BMP280;72511;45.120;20.720;2023-12-29T09:40:52;101042.41;;;12.16
82780;BMP280;72511;45.120;20.720;2023-12-29T09:50:55;101036.72;;;12.30
82780;BMP280;72511;45.120;20.720;2023-12-29T10:00:57;101022.44;;;12.49
82780;BMP280;72511;45.120;20.720;2023-12-29T10:11:00;101001.28;;;12.60
82780;BMP280;72511;45.120;20.720;2023-12-29T10:21:08;100982.75;;;13.45
82780;BMP280;72511;45.120;20.720;2023-12-29T10:31:16;100948.78;;;13.98
82780;BMP280;72511;45.120;20.720;2023-12-29T10:41:18;100959.09;;;14.47
82780;BMP280;72511;45.120;20.720;2023-12-29T10:51:26;100937.03;;;14.70
82780;BMP280;72511;45.120;20.720;2023-12-29T11:01:33;100904.56;;;14.76
82780;BMP280;72511;45.120;20.720;2023-12-29T11:11:36;100901.47;;;14.49
82780;BMP280;72511;45.120;20.720;2023-12-29T11:21:39;100914.13;;;14.55
82780;BMP280;72511;45.120;20.720;2023-12-29T11:31:43;100906.63;;;14.18
82780;BMP280;72511;45.120;20.720;2023-12-29T11:41:59;100891.69;;;13.82
82780;BMP280;72511;45.120;20.720;2023-12-29T11:52:03;100877.72;;;13.96
82780;BMP280;72511;45.120;20.720;2023-12-29T12:02:05;100881.28;;;13.93
82780;BMP280;72511;45.120;20.720;2023-12-29T12:12:07;100875.00;;;13.96
82780;BMP280;72511;45.120;20.720;2023-12-29T12:22:10;100868.69;;;13.70
82780;BMP280;72511;45.120;20.720;2023-12-29T12:32:11;100861.06;;;13.49
82780;BMP280;72511;45.120;20.720;2023-12-29T12:42:13;100867.38;;;13.30
82780;BMP280;72511;45.120;20.720;2023-12-29T12:52:15;100848.56;;;13.36
82780;BMP280;72511;45.120;20.720;2023-12-29T13:02:17;100846.03;;;13.45
82780;BMP280;72511;45.120;20.720;2023-12-29T13:12:20;100845.72;;;13.27
82780;BMP280;72511;45.120;20.720;2023-12-29T13:22:22;100835.44;;;13.02
82780;BMP280;72511;45.120;20.720;2023-12-29T13:32:26;100823.69;;;12.73
82780;BMP280;72511;45.120;20.720;2023-12-29T13:42:32;100825.81;;;12.66
82780;BMP280;72511;45.120;20.720;2023-12-29T13:52:36;100821.38;;;12.56
82780;BMP280;72511;45.120;20.720;2023-12-29T14:02:39;100829.31;;;12.47
82780;BMP280;72511;45.120;20.720;2023-12-29T14:12:42;100835.25;;;12.42
82780;BMP280;72511;45.120;20.720;2023-12-29T14:22:43;100837.56;;;12.24
82780;BMP280;72511;45.120;20.720;2023-12-29T14:32:45;100838.44;;;12.17
82780;BMP280;72511;45.120;20.720;2023-12-29T14:42:46;100837.84;;;12.10
82780;BMP280;72511;45.120;20.720;2023-12-29T14:52:48;100834.22;;;11.97
82780;BMP280;72511;45.120;20.720;2023-12-29T15:02:50;100822.13;;;11.82
82780;BMP280;72511;45.120;20.720;2023-12-29T15:12:53;100815.19;;;11.58
82780;BMP280;72511;45.120;20.720;2023-12-29T15:22:54;100827.28;;;11.53
82780;BMP280;72511;45.120;20.720;2023-12-29T15:33:00;100815.69;;;11.30
82780;BMP280;72511;45.120;20.720;2023-12-29T15:43:01;100833.16;;;11.25
82780;BMP280;72511;45.120;20.720;2023-12-29T15:53:04;100816.88;;;11.02
82780;BMP280;72511;45.120;20.720;2023-12-29T16:03:05;100815.25;;;10.82
82780;BMP280;72511;45.120;20.720;2023-12-29T16:13:07;100815.25;;;10.82
82780;BMP280;72511;45.120;20.720;2023-12-29T16:23:09;100799.88;;;10.75
82780;BMP280;72511;45.120;20.720;2023-12-29T16:33:10;100816.88;;;10.76
82780;BMP280;72511;45.120;20.720;2023-12-29T16:43:12;100793.63;;;10.52
82780;BMP280;72511;45.120;20.720;2023-12-29T16:53:13;100794.44;;;10.49
82780;BMP280;72511;45.120;20.720;2023-12-29T17:03:14;100793.06;;;10.34
82780;BMP280;72511;45.120;20.720;2023-12-29T17:13:16;100798.47;;;10.37
82780;BMP280;72511;45.120;20.720;2023-12-29T17:23:17;100775.28;;;10.03
82780;BMP280;72511;45.120;20.720;2023-12-29T17:33:19;100784.81;;;9.81
82780;BMP280;72511;45.120;20.720;2023-12-29T17:43:20;100780.47;;;9.53
82780;BMP280;72511;45.120;20.720;2023-12-29T17:53:22;100774.53;;;9.25
82780;BMP280;72511;45.120;20.720;2023-12-29T18:03:24;100768.09;;;9.05
82780;BMP280;72511;45.120;20.720;2023-12-29T18:13:25;100780.94;;;8.90
82780;BMP280;72511;45.120;20.720;2023-12-29T18:23:26;100776.00;;;8.75
82780;BMP280;72511;45.120;20.720;2023-12-29T18:33:28;100786.09;;;8.64
82780;BMP280;72511;45.120;20.720;2023-12-29T18:43:30;100778.09;;;8.46
82780;BMP280;72511;45.120;20.720;2023-12-29T18:53:33;100781.22;;;8.34
82780;BMP280;72511;45.120;20.720;2023-12-29T19:03:34;100764.63;;;8.39
82780;BMP280;72511;45.120;20.720;2023-12-29T19:13:38;100768.13;;;8.33
82780;BMP280;72511;45.120;20.720;2023-12-29T19:23:40;100753.19;;;8.07
82780;BMP280;72511;45.120;20.720;2023-12-29T19:33:41;100773.63;;;8.05
82780;BMP280;72511;45.120;20.720;2023-12-29T19:43:43;100755.56;;;7.84
82780;BMP280;72511;45.120;20.720;2023-12-29T19:53:46;100757.50;;;7.77
82780;BMP280;72511;45.120;20.720;2023-12-29T20:03:48;100758.31;;;7.63
82780;BMP280;72511;45.120;20.720;2023-12-29T20:13:50;100761.78;;;7.57
82780;BMP280;72511;45.120;20.720;2023-12-29T20:23:52;100738.31;;;7.33
82780;BMP280;72511;45.120;20.720;2023-12-29T20:33:54;100756.00;;;7.34
82780;BMP280;72511;45.120;20.720;2023-12-29T20:43:55;100761.38;;;7.27
82780;BMP280;72511;45.120;20.720;2023-12-29T20:53:57;100765.22;;;7.22
82780;BMP280;72511;45.120;20.720;2023-12-29T21:03:59;100752.16;;;7.17
82780;BMP280;72511;45.120;20.720;2023-12-29T21:14:00;100741.38;;;7.06
82780;BMP280;72511;45.120;20.720;2023-12-29T21:24:02;100759.03;;;7.00
82780;BMP280;72511;45.120;20.720;2023-12-29T21:34:03;100753.66;;;6.93
82780;BMP280;72511;45.120;20.720;2023-12-29T21:44:04;100747.09;;;6.91
82780;BMP280;72511;45.120;20.720;2023-12-29T21:54:08;100744.03;;;6.78
82780;BMP280;72511;45.120;20.720;2023-12-29T22:04:09;100751.69;;;6.73
82780;BMP280;72511;45.120;20.720;2023-12-29T22:14:11;100727.41;;;6.52
82780;BMP280;72511;45.120;20.720;2023-12-29T22:24:13;100729.31;;;6.44
82780;BMP280;72511;45.120;20.720;2023-12-29T22:34:15;100723.56;;;6.42
82780;BMP280;72511;45.120;20.720;2023-12-29T22:44:16;100701.22;;;6.31
82780;BMP280;72511;45.120;20.720;2023-12-29T22:54:18;100693.13;;;6.21
82780;BMP280;72511;45.120;20.720;2023-12-29T23:04:20;100689.69;;;6.20
82780;BMP280;72511;45.120;20.720;2023-12-29T23:14:22;100681.19;;;6.08
82780;BMP280;72511;45.120;20.720;2023-12-29T23:24:23;100672.69;;;5.99
82780;BMP280;72511;45.120;20.720;2023-12-29T23:34:25;100666.94;;;5.93
82780;BMP280;72511;45.120;20.720;2023-12-29T23:44:26;100665.41;;;5.99
82780;BMP280;72511;45.120;20.720;2023-12-29T23:54:28;100639.28;;;5.96
